createdAt,value
2024-01-22T00:02:40.491Z,25.03
2024-01-22T00:05:43.154Z,22.83
2024-01-22T00:08:47.973Z,22.50
2024-01-22T00:11:51.886Z,25.23
2024-01-22T00:14:55.284Z,22.55
2024-01-22T00:17:58.283Z,22.63
2024-01-22T00:21:01.041Z,22.85
2024-01-22T00:24:04.551Z,22.60
2024-01-22T00:27:07.518Z,22.98
2024-01-22T00:30:12.411Z,23.75
2024-01-22T00:33:15.507Z,22.43
2024-01-22T00:36:18.348Z,21.15
2024-01-22T00:39:22.980Z,22.45
2024-01-22T00:42:25.885Z,22.58
2024-01-22T00:45:30.328Z,22.27
2024-01-22T00:48:33.403Z,22.73
2024-01-22T00:51:38.211Z,21.40
2024-01-22T00:54:41.808Z,21.85
2024-01-22T00:57:44.436Z,21.05
2024-01-22T01:00:47.293Z,21.05
2024-01-22T01:03:50.308Z,21.60
2024-01-22T01:06:53.692Z,22.65
2024-01-22T01:09:56.607Z,21.40
2024-01-22T01:12:59.522Z,21.30
2024-01-22T01:16:02.554Z,20.98
2024-01-22T01:19:05.583Z,22.43
2024-01-22T01:22:09.542Z,20.90
2024-01-22T01:25:12.451Z,23.67
2024-01-22T01:28:16.070Z,21.27
2024-01-22T01:31:19.350Z,21.00
2024-01-22T01:34:22.604Z,20.77
2024-01-22T01:37:25.560Z,22.00
2024-01-22T01:40:28.750Z,20.13
2024-01-22T01:43:31.859Z,21.33
2024-01-22T01:46:34.758Z,20.92
2024-01-22T01:49:38.122Z,21.33
2024-01-22T01:52:41.246Z,20.92
2024-01-22T01:55:46.328Z,21.67
2024-01-22T01:58:50.307Z,20.98
2024-01-22T02:01:54.268Z,19.75
2024-01-22T02:04:57.351Z,19.60
2024-01-22T02:08:00.289Z,20.92
2024-01-22T02:11:04.675Z,19.63
2024-01-22T02:14:07.650Z,21.08
2024-01-22T02:17:10.503Z,20.63
2024-01-22T02:20:13.445Z,19.73
2024-01-22T02:23:17.253Z,20.85
2024-01-22T02:26:21.007Z,20.77
2024-01-22T02:29:24.969Z,20.25
2024-01-22T02:32:27.960Z,20.17
2024-01-22T02:35:31.332Z,19.07
2024-01-22T02:38:35.058Z,20.10
2024-01-22T02:41:37.985Z,19.85
2024-01-22T02:44:42.808Z,22.52
2024-01-22T02:47:46.018Z,19.45
2024-01-22T02:50:48.868Z,18.50
2024-01-22T02:53:52.567Z,20.83
2024-01-22T02:56:55.162Z,19.08
2024-01-22T02:59:58.349Z,18.10
2024-01-22T03:03:01.349Z,19.40
2024-01-22T03:06:04.566Z,18.87
2024-01-22T03:09:07.751Z,18.58
2024-01-22T03:12:10.694Z,19.08
2024-01-22T03:15:14.186Z,18.27
2024-01-22T03:18:17.443Z,18.98
2024-01-22T03:21:21.013Z,19.10
2024-01-22T03:24:23.933Z,18.45
2024-01-22T03:27:26.961Z,19.48
2024-01-22T03:30:30.388Z,17.15
2024-01-22T03:33:33.433Z,17.98
2024-01-22T03:36:38.734Z,18.17
2024-01-22T03:39:41.582Z,16.58
2024-01-22T03:42:44.532Z,16.45
2024-01-22T03:45:47.843Z,17.35
2024-01-22T03:48:51.575Z,17.15
2024-01-22T03:51:55.692Z,16.17
2024-01-22T03:54:58.662Z,23.92
2024-01-22T03:58:01.674Z,16.77
2024-01-22T04:01:04.487Z,16.77
2024-01-22T04:04:07.498Z,16.67
2024-01-22T04:07:10.465Z,17.70
2024-01-22T04:10:17.779Z,15.30
2024-01-22T04:13:29.651Z,15.90
2024-01-22T04:16:37.941Z,16.35
2024-01-22T04:19:42.989Z,15.70
2024-01-22T04:22:45.559Z,16.60
2024-01-22T04:25:48.902Z,15.90
2024-01-22T04:28:51.948Z,16.65
2024-01-22T04:31:55.839Z,17.55
2024-01-22T04:34:59.729Z,14.57
2024-01-22T04:38:02.434Z,16.90
2024-01-22T04:41:06.005Z,17.58
2024-01-22T04:44:08.901Z,17.73
2024-01-22T04:47:11.484Z,16.27
2024-01-22T04:50:15.265Z,17.15
2024-01-22T04:53:18.196Z,16.43
2024-01-22T04:56:21.151Z,16.15
2024-01-22T04:59:24.123Z,15.80
2024-01-22T05:02:30.134Z,17.90
2024-01-22T05:05:34.853Z,16.55
2024-01-22T05:08:39.610Z,16.90
2024-01-22T05:11:42.806Z,14.85
2024-01-22T05:14:47.033Z,15.80
2024-01-22T05:17:50.249Z,17.08
2024-01-22T05:20:53.084Z,17.95
2024-01-22T05:23:56.102Z,17.00
2024-01-22T05:26:58.818Z,16.08
2024-01-22T05:30:03.126Z,18.95
2024-01-22T05:33:06.423Z,16.35
2024-01-22T05:36:10.372Z,17.60
2024-01-22T05:39:14.298Z,17.70
2024-01-22T05:42:17.220Z,18.05
2024-01-22T05:45:20.416Z,16.50
2024-01-22T05:48:23.471Z,18.42
2024-01-22T05:51:26.910Z,16.70
2024-01-22T05:54:31.217Z,17.10
2024-01-22T05:57:34.098Z,17.27
2024-01-22T06:00:40.728Z,17.08
2024-01-22T06:03:43.540Z,18.65
2024-01-22T06:06:46.253Z,19.27
2024-01-22T06:09:55.485Z,18.13
2024-01-22T06:13:06.275Z,17.50
2024-01-22T06:16:10.628Z,18.10
2024-01-22T06:19:14.345Z,17.38
2024-01-22T06:22:19.216Z,18.83
2024-01-22T06:25:22.422Z,16.47
2024-01-22T06:28:26.114Z,16.35
2024-01-22T06:31:30.093Z,17.98
2024-01-22T06:34:33.322Z,17.45
2024-01-22T06:37:53.822Z,17.08
2024-01-22T06:40:58.306Z,17.53
2024-01-22T06:44:03.866Z,25.02
2024-01-22T06:47:07.097Z,16.75
2024-01-22T06:50:11.074Z,17.48
2024-01-22T06:53:17.036Z,17.67
2024-01-22T06:56:20.723Z,15.77
2024-01-22T06:59:25.654Z,17.35
2024-01-22T07:02:30.452Z,16.55
2024-01-22T07:05:34.585Z,16.88
2024-01-22T07:08:39.976Z,16.77
2024-01-22T07:11:48.022Z,15.23
2024-01-22T07:14:51.136Z,15.38
2024-01-22T07:17:54.503Z,19.30
2024-01-22T07:21:00.275Z,17.33
2024-01-22T07:24:03.254Z,15.02
2024-01-22T07:27:06.316Z,16.40
2024-01-22T07:30:15.640Z,15.98
2024-01-22T07:33:18.723Z,16.02
2024-01-22T07:36:29.243Z,16.23
2024-01-22T07:39:32.274Z,15.82
2024-01-22T07:42:35.375Z,15.53
2024-01-22T07:45:39.088Z,17.75
2024-01-22T07:48:41.892Z,16.02
2024-01-22T07:51:47.313Z,18.13
2024-01-22T07:54:56.544Z,18.63
2024-01-22T07:58:02.754Z,17.67
2024-01-22T08:01:06.423Z,16.42
2024-01-22T08:04:12.364Z,18.45
2024-01-22T08:07:17.556Z,17.30
2024-01-22T08:10:23.066Z,18.90
2024-01-22T08:13:28.099Z,17.60
2024-01-22T08:16:35.788Z,17.45
2024-01-22T08:19:39.347Z,18.33
2024-01-22T08:22:48.057Z,20.80
2024-01-22T08:25:50.856Z,20.45
2024-01-22T08:28:55.110Z,19.27
2024-01-22T08:31:59.921Z,16.15
2024-01-22T08:35:05.543Z,17.02
2024-01-22T08:38:11.319Z,17.92
2024-01-22T08:41:15.416Z,17.75
2024-01-22T08:44:21.942Z,16.70
2024-01-22T08:47:24.706Z,18.63
2024-01-22T08:50:27.855Z,19.20
2024-01-22T08:53:32.706Z,19.75
2024-01-22T08:56:35.380Z,17.70
2024-01-22T08:59:39.371Z,16.80
2024-01-22T09:02:45.643Z,19.05
2024-01-22T09:05:49.142Z,16.58
2024-01-22T09:08:52.674Z,21.52
2024-01-22T09:12:05.004Z,20.00
2024-01-22T09:15:13.718Z,16.53
2024-01-22T09:18:17.774Z,18.48
2024-01-22T09:21:20.890Z,16.23
2024-01-22T09:24:25.288Z,19.20
2024-01-22T09:27:28.189Z,16.98
2024-01-22T09:30:31.175Z,15.83
2024-01-22T09:33:34.013Z,20.55
2024-01-22T09:36:37.991Z,16.77
2024-01-22T09:39:42.094Z,17.02
2024-01-22T09:42:45.738Z,16.08
2024-01-22T09:45:51.449Z,20.70
2024-01-22T09:49:00.424Z,17.60
2024-01-22T09:52:03.630Z,17.50
2024-01-22T09:55:08.095Z,18.35
2024-01-22T09:58:20.882Z,19.77
2024-01-22T10:01:26.315Z,18.07
2024-01-22T10:04:32.513Z,18.30
2024-01-22T10:07:35.607Z,18.20
2024-01-22T10:10:39.420Z,18.10
2024-01-22T10:13:51.999Z,18.25
2024-01-22T10:16:58.466Z,18.47
2024-01-22T10:20:09.332Z,19.55
2024-01-22T10:23:15.393Z,23.73
2024-01-22T10:26:23.075Z,17.60
2024-01-22T10:29:30.244Z,17.25
2024-01-22T10:32:33.041Z,19.43
2024-01-22T10:35:35.708Z,20.58
2024-01-22T10:38:38.618Z,18.10
2024-01-22T10:41:43.586Z,19.70
2024-01-22T10:44:49.094Z,18.02
2024-01-22T10:47:58.846Z,18.03
2024-01-22T10:51:08.362Z,18.85
2024-01-22T10:54:12.866Z,16.98
2024-01-22T10:57:25.865Z,17.83
2024-01-22T11:00:37.569Z,22.33
2024-01-22T11:03:47.918Z,18.20
2024-01-22T11:06:56.359Z,17.75
2024-01-22T11:10:04.550Z,18.73
2024-01-22T11:13:08.737Z,22.17
2024-01-22T11:16:11.533Z,19.83
2024-01-22T11:19:25.887Z,22.23
2024-01-22T11:22:28.946Z,21.35
2024-01-22T11:25:35.879Z,17.65
2024-01-22T11:28:38.787Z,18.23
2024-01-22T11:31:42.536Z,19.05
2024-01-22T11:34:48.707Z,20.23
2024-01-22T11:37:52.807Z,16.73
2024-01-22T11:40:57.155Z,17.85
2024-01-22T11:44:01.428Z,18.40
2024-01-22T11:47:10.877Z,19.30
2024-01-22T11:50:14.022Z,16.57
2024-01-22T11:53:17.195Z,17.35
2024-01-22T11:56:22.567Z,22.33
2024-01-22T11:59:26.418Z,20.77
2024-01-22T12:02:32.296Z,19.25
2024-01-22T12:05:37.016Z,18.33
2024-01-22T12:08:39.970Z,15.27
2024-01-22T12:11:52.669Z,17.83
2024-01-22T12:14:59.177Z,21.33
2024-01-22T12:18:04.442Z,15.88
2024-01-22T12:21:11.829Z,17.20
2024-01-22T12:24:15.910Z,17.35
2024-01-22T12:27:21.562Z,16.45
2024-01-22T12:30:25.244Z,15.82
2024-01-22T12:33:33.732Z,19.23
2024-01-22T12:36:38.740Z,18.03
2024-01-22T12:39:42.495Z,17.08
2024-01-22T12:42:59.035Z,17.23
2024-01-22T12:46:08.197Z,15.80
2024-01-22T12:49:12.101Z,17.20
2024-01-22T12:52:15.305Z,20.00
2024-01-22T12:55:19.748Z,21.02
2024-01-22T12:58:27.652Z,21.10
2024-01-22T13:01:32.193Z,19.38
2024-01-22T13:04:39.236Z,18.58
2024-01-22T13:07:43.262Z,14.70
2024-01-22T13:10:47.020Z,16.98
2024-01-22T13:13:52.354Z,20.73
2024-01-22T13:16:55.245Z,16.05
2024-01-22T13:20:01.203Z,23.35
2024-01-22T13:23:05.360Z,14.93
2024-01-22T13:26:11.100Z,17.92
2024-01-22T13:29:15.306Z,20.33
2024-01-22T13:32:21.482Z,18.52
2024-01-22T13:35:24.175Z,16.13
2024-01-22T13:38:30.392Z,19.80
2024-01-22T13:41:33.942Z,16.85
2024-01-22T13:44:37.110Z,16.60
2024-01-22T13:47:40.459Z,17.00
2024-01-22T13:50:43.984Z,16.10
2024-01-22T13:53:50.117Z,17.43
2024-01-22T13:56:53.258Z,15.85
2024-01-22T13:59:55.947Z,19.35
2024-01-22T14:02:59.036Z,17.83
2024-01-22T14:06:02.713Z,16.50
2024-01-22T14:09:07.335Z,19.10
2024-01-22T14:12:10.883Z,17.33
2024-01-22T14:15:14.649Z,15.40
2024-01-22T14:18:18.351Z,18.20
2024-01-22T14:21:21.775Z,15.55
2024-01-22T14:24:29.187Z,18.47
2024-01-22T14:27:33.275Z,17.50
2024-01-22T14:30:36.834Z,18.80
2024-01-22T14:33:40.912Z,18.98
2024-01-22T14:36:47.157Z,18.17
2024-01-22T14:39:51.198Z,16.40
2024-01-22T14:42:54.361Z,16.65
2024-01-22T14:45:58.443Z,18.42
2024-01-22T14:49:06.141Z,19.98
2024-01-22T14:52:16.306Z,17.35
2024-01-22T14:55:19.470Z,17.37
2024-01-22T14:58:22.293Z,20.60
2024-01-22T15:01:25.343Z,24.88
2024-01-22T15:04:28.161Z,22.88
2024-01-22T15:07:31.401Z,20.80
2024-01-22T15:10:36.644Z,20.97
2024-01-22T15:13:40.545Z,23.40
2024-01-22T15:16:48.332Z,22.45
2024-01-22T15:19:51.894Z,22.33
2024-01-22T15:22:55.694Z,22.20
2024-01-22T15:25:59.123Z,27.60
2024-01-22T15:29:02.881Z,23.05
2024-01-22T15:32:07.554Z,19.33
2024-01-22T15:35:10.934Z,29.27
2024-01-22T15:38:19.039Z,28.92
2024-01-22T15:41:23.762Z,38.20
2024-01-22T15:44:26.528Z,36.05
2024-01-22T15:47:29.610Z,35.38
2024-01-22T15:50:33.955Z,33.33
2024-01-22T15:53:36.902Z,31.88
2024-01-22T15:56:39.979Z,35.43
2024-01-22T15:59:42.876Z,34.72
2024-01-22T16:02:45.694Z,35.85
2024-01-22T16:05:49.104Z,29.58
2024-01-22T16:08:52.402Z,38.20
2024-01-22T16:11:55.241Z,36.03
2024-01-22T16:14:58.132Z,39.55
2024-01-22T16:18:02.040Z,33.10
2024-01-22T16:21:04.898Z,39.00
2024-01-22T16:24:08.483Z,38.97
2024-01-22T16:27:11.423Z,37.20
2024-01-22T16:30:15.097Z,35.63
2024-01-22T16:33:18.501Z,35.70
2024-01-22T16:36:23.611Z,41.30
2024-01-22T16:39:26.916Z,35.03
2024-01-22T16:42:30.212Z,34.27
2024-01-22T16:45:33.488Z,34.67
2024-01-22T16:48:38.371Z,35.15
2024-01-22T16:51:41.358Z,33.40
2024-01-22T16:54:43.935Z,35.83
2024-01-22T16:57:47.557Z,36.20
2024-01-22T17:00:51.262Z,34.22
2024-01-22T17:03:54.285Z,34.83
2024-01-22T17:07:12.925Z,38.67
2024-01-22T17:10:16.003Z,34.40
2024-01-22T17:13:18.676Z,38.10
2024-01-22T17:16:21.823Z,36.58
2024-01-22T17:19:25.327Z,35.97
2024-01-22T17:22:28.458Z,32.50
2024-01-22T17:25:31.356Z,34.08
2024-01-22T17:28:37.010Z,32.23
2024-01-22T17:31:40.880Z,30.63
2024-01-22T17:34:44.052Z,33.08
2024-01-22T17:37:47.126Z,32.58
2024-01-22T17:40:49.864Z,31.75
2024-01-22T17:43:52.913Z,34.37
2024-01-22T17:46:55.785Z,33.50
2024-01-22T17:50:00.027Z,34.47
2024-01-22T17:53:04.204Z,30.05
2024-01-22T17:56:07.361Z,28.77
2024-01-22T17:59:11.085Z,33.77
2024-01-22T18:02:14.359Z,31.15
2024-01-22T18:05:18.064Z,31.20
2024-01-22T18:08:21.097Z,32.30
2024-01-22T18:11:24.223Z,33.00
2024-01-22T18:14:27.344Z,30.90
2024-01-22T18:17:30.239Z,29.27
2024-01-22T18:20:33.237Z,31.58
2024-01-22T18:23:36.591Z,30.90
2024-01-22T18:26:39.520Z,27.17
2024-01-22T18:29:42.478Z,31.07
2024-01-22T18:32:46.881Z,29.45
2024-01-22T18:35:50.155Z,29.10
2024-01-22T18:38:52.975Z,32.20
2024-01-22T18:41:56.730Z,27.20
2024-01-22T18:45:00.921Z,30.07
2024-01-22T18:48:06.070Z,32.33
2024-01-22T18:51:09.437Z,29.20
2024-01-22T18:54:14.830Z,32.25
2024-01-22T18:57:18.027Z,32.13
2024-01-22T19:00:21.691Z,31.07
2024-01-22T19:03:26.893Z,32.70
2024-01-22T19:06:30.939Z,30.75
2024-01-22T19:09:35.026Z,31.70
2024-01-22T19:12:38.989Z,28.08
2024-01-22T19:15:43.138Z,28.80
2024-01-22T19:18:49.200Z,27.30
2024-01-22T19:21:52.837Z,28.48
2024-01-22T19:24:57.530Z,32.38
2024-01-22T19:28:00.756Z,28.70
2024-01-22T19:31:05.715Z,28.33
2024-01-22T19:34:09.616Z,30.52
2024-01-22T19:37:13.299Z,31.77
2024-01-22T19:40:17.977Z,29.83
2024-01-22T19:43:21.832Z,28.45
2024-01-22T19:46:25.816Z,32.87
2024-01-22T19:49:30.565Z,30.63
2024-01-22T19:52:34.824Z,29.10
2024-01-22T19:55:39.646Z,31.10
2024-01-22T19:58:44.407Z,30.02
2024-01-22T20:01:50.398Z,32.37
2024-01-22T20:04:54.423Z,28.95
2024-01-22T20:07:59.452Z,29.33
2024-01-22T20:11:03.320Z,30.17
2024-01-22T20:14:08.084Z,33.80
2024-01-22T20:17:11.370Z,31.50
2024-01-22T20:20:16.060Z,30.27
2024-01-22T20:23:20.697Z,28.15
2024-01-22T20:26:26.741Z,26.80
2024-01-22T20:29:31.025Z,28.45
2024-01-22T20:32:35.344Z,27.87
2024-01-22T20:35:40.129Z,27.88
2024-01-22T20:38:47.866Z,26.35
2024-01-22T20:41:51.757Z,27.90
2024-01-22T20:44:55.834Z,29.65
2024-01-22T20:48:00.963Z,27.87
2024-01-22T20:51:04.733Z,32.05
2024-01-22T20:54:08.211Z,30.35
2024-01-22T20:57:12.124Z,34.28
2024-01-22T21:00:16.924Z,32.72
2024-01-22T21:03:20.537Z,34.73
2024-01-22T21:06:23.639Z,33.15
2024-01-22T21:09:26.959Z,32.55
2024-01-22T21:12:29.830Z,31.85
2024-01-22T21:15:33.517Z,36.17
2024-01-22T21:18:36.824Z,35.63
2024-01-22T21:21:43.297Z,38.05
2024-01-22T21:24:49.524Z,40.55
2024-01-22T21:27:52.425Z,37.78
2024-01-22T21:30:55.415Z,42.30
2024-01-22T21:33:58.522Z,35.17
2024-01-22T21:37:01.321Z,35.38
2024-01-22T21:40:04.580Z,36.78
2024-01-22T21:43:08.530Z,36.25
2024-01-22T21:46:11.210Z,35.53
2024-01-22T21:49:14.189Z,39.90
2024-01-22T21:52:16.912Z,36.50
2024-01-22T21:55:19.560Z,40.70
2024-01-22T21:58:22.349Z,39.42
2024-01-22T22:01:25.460Z,38.80
2024-01-22T22:04:28.506Z,40.10
2024-01-22T22:07:31.502Z,40.53
2024-01-22T22:10:34.633Z,41.75
2024-01-22T22:13:37.664Z,41.80
2024-01-22T22:16:40.560Z,40.28
2024-01-22T22:19:44.588Z,43.70
2024-01-22T22:22:47.832Z,42.08
2024-01-22T22:25:50.428Z,44.28
2024-01-22T22:28:54.091Z,45.97
2024-01-22T22:31:56.924Z,41.17
2024-01-22T22:34:59.812Z,42.70
2024-01-22T22:38:02.526Z,43.83
2024-01-22T22:41:06.089Z,44.58
2024-01-22T22:44:09.512Z,41.35
2024-01-22T22:47:12.426Z,46.17
2024-01-22T22:50:15.484Z,46.67
2024-01-22T22:53:18.581Z,43.47
2024-01-22T22:56:22.176Z,45.13
2024-01-22T22:59:25.266Z,46.03
2024-01-22T23:02:28.171Z,44.80
2024-01-22T23:05:31.161Z,43.73
2024-01-22T23:08:34.158Z,43.13
2024-01-22T23:11:36.854Z,43.45
2024-01-22T23:14:39.641Z,44.95
2024-01-22T23:17:42.547Z,42.55
2024-01-22T23:20:45.416Z,43.83
2024-01-22T23:23:48.255Z,43.53
2024-01-22T23:26:51.199Z,44.40
2024-01-22T23:29:53.998Z,40.33
2024-01-22T23:32:57.037Z,41.63
2024-01-22T23:35:59.793Z,44.10
2024-01-22T23:39:08.556Z,40.95
2024-01-22T23:42:11.156Z,42.80
2024-01-22T23:45:14.005Z,41.10
2024-01-22T23:48:17.441Z,40.45
2024-01-22T23:51:21.083Z,41.37
2024-01-22T23:54:23.963Z,39.63
2024-01-22T23:57:26.873Z,43.92
